Observation data for Fluvanna on 09/11/2017      Previous  Date  Next       Current Mesonet Observations  Soil Data  Daily Summary Page  Observations in Plain Language
KFVS 110500Z 10008KT 19/07 A3021 RMK A01 T01870071  RH  047%=      5-min Rain = 0
KFVS 110505Z 10008KT 19/07 A3021 RMK A01 T01900071  RH  047%=      5-min Rain = 0
KFVS 110510Z 10008KT 19/07 A3021 RMK A01 T01910072  RH  046%=      5-min Rain = 0
KFVS 110515Z 10008KT 19/07 A3021 RMK A01 T01900072  RH  047%=      5-min Rain = 0
KFVS 110520Z 10008KT 19/07 A3021 RMK A01 T01900071  RH  046%=      5-min Rain = 0
KFVS 110525Z 10007KT 19/07 A3021 RMK A01 T01900071  RH  046%=      5-min Rain = 0
KFVS 110530Z 10007KT 19/07 A3021 RMK A01 T01890070  RH  047%=      5-min Rain = 0
KFVS 110535Z 10007KT 19/07 A3021 RMK A01 T01870070  RH  047%=      5-min Rain = 0
KFVS 110540Z 10007KT 19/07 A3021 RMK A01 T01860071  RH  048%=      5-min Rain = 0
KFVS 110545Z 10007KT 19/07 A3021 RMK A01 T01850071  RH  048%=      5-min Rain = 0
KFVS 110550Z 10007KT 18/07 A3021 RMK A01 T01840071  RH  049%=      5-min Rain = 0
KFVS 110555Z 10007KT 18/07 A3021 RMK A01 T01820072  RH  049%=      5-min Rain = 0
KFVS 110600Z 10007KT 18/07 A3021 RMK A01 T01810072  RH  049%=      5-min Rain = 0
KFVS 110605Z 10006KT 18/07 A302 RMK A01 T01800073  RH  050%=      5-min Rain = 0
KFVS 110610Z 10007KT 18/07 A302 RMK A01 T01800073  RH  050%=      5-min Rain = 0
KFVS 110615Z 11007KT 18/07 A302 RMK A01 T01790074  RH  051%=      5-min Rain = 0
KFVS 110620Z 11007KT 18/07 A302 RMK A01 T01800074  RH  051%=      5-min Rain = 0
KFVS 110625Z 11007KT 18/08 A302 RMK A01 T01810075  RH  051%=      5-min Rain = 0
KFVS 110630Z 11006KT 18/07 A302 RMK A01 T01790074  RH  051%=      5-min Rain = 0
KFVS 110635Z 11006KT 18/07 A302 RMK A01 T01760074  RH  052%=      5-min Rain = 0
KFVS 110640Z 10005KT 17/07 A302 RMK A01 T01730073  RH  053%=      5-min Rain = 0
KFVS 110645Z 10006KT 17/07 A302 RMK A01 T01710073  RH  053%=      5-min Rain = 0
KFVS 110650Z 10006KT 17/07 A302 RMK A01 T01700073  RH  054%=      5-min Rain = 0
KFVS 110655Z 10006KT 17/07 A302 RMK A01 T01680073  RH  054%=      5-min Rain = 0
KFVS 110700Z 11006KT 17/07 A302 RMK A01 T01690074  RH  055%=      5-min Rain = 0
KFVS 110705Z 11006KT 17/08 A302 RMK A01 T01690075  RH  055%=      5-min Rain = 0
KFVS 110710Z 11005KT 17/08 A302 RMK A01 T01670075  RH  055%=      5-min Rain = 0
KFVS 110715Z 11006KT 17/08 A302 RMK A01 T01660075  RH  056%=      5-min Rain = 0
KFVS 110720Z 11005KT 17/08 A302 RMK A01 T01650075  RH  056%=      5-min Rain = 0
KFVS 110725Z 11005KT 16/08 A302 RMK A01 T01640075  RH  056%=      5-min Rain = 0
KFVS 110730Z 10005KT 16/08 A302 RMK A01 T01620075  RH  057%=      5-min Rain = 0
KFVS 110735Z 11005KT 16/08 A302 RMK A01 T01610075  RH  057%=      5-min Rain = 0
KFVS 110740Z 11005KT 16/08 A302 RMK A01 T01610075  RH  057%=      5-min Rain = 0
KFVS 110745Z 10005KT 16/08 A302 RMK A01 T01610075  RH  057%=      5-min Rain = 0
KFVS 110750Z 11005KT 16/07 A302 RMK A01 T01600074  RH  057%=      5-min Rain = 0
KFVS 110755Z 11005KT 16/07 A302 RMK A01 T01590074  RH  058%=      5-min Rain = 0
KFVS 110800Z 12005KT 16/07 A302 RMK A01 T01570074  RH  058%=      5-min Rain = 0
KFVS 110805Z 11005KT 16/07 A302 RMK A01 T01570074  RH  059%=      5-min Rain = 0
KFVS 110810Z 12005KT 16/08 A302 RMK A01 T01570075  RH  059%=      5-min Rain = 0
KFVS 110815Z 13005KT 16/08 A302 RMK A01 T01570076  RH  059%=      5-min Rain = 0
KFVS 110820Z 12005KT 16/08 A302 RMK A01 T01560076  RH  060%=      5-min Rain = 0
KFVS 110825Z 12005KT 15/08 A302 RMK A01 T01540076  RH  061%=      5-min Rain = 0
KFVS 110830Z 13005KT 15/08 A302 RMK A01 T01530077  RH  061%=      5-min Rain = 0
KFVS 110835Z 13005KT 15/08 A302 RMK A01 T01530077  RH  061%=      5-min Rain = 0
KFVS 110840Z 13005KT 15/08 A302 RMK A01 T01540077  RH  061%=      5-min Rain = 0
KFVS 110845Z 13005KT 16/08 A302 RMK A01 T01550078  RH  061%=      5-min Rain = 0
KFVS 110850Z 13005KT 16/08 A302 RMK A01 T01550078  RH  061%=      5-min Rain = 0
KFVS 110855Z 14005KT 16/08 A3021 RMK A01 T01550078  RH  061%=      5-min Rain = 0
KFVS 110900Z 14005KT 16/08 A3021 RMK A01 T01550078  RH  061%=      5-min Rain = 0
KFVS 110905Z 15005KT 16/08 A3021 RMK A01 T01550078  RH  061%=      5-min Rain = 0
KFVS 110910Z 15006KT 16/08 A302 RMK A01 T01550078  RH  061%=      5-min Rain = 0
KFVS 110915Z 15006KT 15/08 A302 RMK A01 T01540078  RH  061%=      5-min Rain = 0
KFVS 110920Z 16005KT 15/08 A302 RMK A01 T01530078  RH  062%=      5-min Rain = 0
KFVS 110925Z 15005KT 15/08 A302 RMK A01 T01520078  RH  062%=      5-min Rain = 0
KFVS 110930Z 16005KT 15/08 A302 RMK A01 T01500078  RH  063%=      5-min Rain = 0
KFVS 110935Z 16005KT 15/08 A302 RMK A01 T01490078  RH  063%=      5-min Rain = 0
KFVS 110940Z 16005KT 15/08 A302 RMK A01 T01480078  RH  064%=      5-min Rain = 0
KFVS 110945Z 16006KT 15/08 A302 RMK A01 T01480078  RH  064%=      5-min Rain = 0
KFVS 110950Z 16006KT 15/08 A302 RMK A01 T01490078  RH  064%=      5-min Rain = 0
KFVS 110955Z 17006KT 15/08 A302 RMK A01 T01490078  RH  064%=      5-min Rain = 0
KFVS 111000Z 17006KT 15/08 A302 RMK A01 T01480078  RH  064%=      5-min Rain = 0
KFVS 111005Z 17006KT 15/08 A302 RMK A01 T01470078  RH  064%=      5-min Rain = 0
KFVS 111010Z 17006KT 15/08 A302 RMK A01 T01460078  RH  064%=      5-min Rain = 0
KFVS 111015Z 17006KT 15/08 A3019 RMK A01 T01450078  RH  065%=      5-min Rain = 0
KFVS 111020Z 17005KT 15/08 A3019 RMK A01 T01450078  RH  065%=      5-min Rain = 0
KFVS 111025Z 17005KT 15/08 A3019 RMK A01 T01460079  RH  065%=      5-min Rain = 0
KFVS 111030Z 17005KT 15/08 A3019 RMK A01 T01460079  RH  065%=      5-min Rain = 0
KFVS 111035Z 17005KT 15/08 A302 RMK A01 T01460079  RH  065%=      5-min Rain = 0
KFVS 111040Z 17005KT 15/08 A3019 RMK A01 T01450079  RH  065%=      5-min Rain = 0
KFVS 111045Z 17005KT 14/08 A302 RMK A01 T01440079  RH  066%=      5-min Rain = 0
KFVS 111050Z 17004KT 14/08 A302 RMK A01 T01440080  RH  066%=      5-min Rain = 0
KFVS 111055Z 17003KT 14/08 A302 RMK A01 T01430077  RH  065%=      5-min Rain = 0
KFVS 111100Z 18002KT 14/08 A302 RMK A01 T01400077  RH  067%=      5-min Rain = 0
KFVS 111105Z 19002KT 14/08 A302 RMK A01 T01400080  RH  068%=      5-min Rain = 0
KFVS 111110Z 20002KT 14/08 A302 RMK A01 T01420081  RH  068%=      5-min Rain = 0
KFVS 111115Z 20002KT 15/08 A302 RMK A01 T01450082  RH  067%=      5-min Rain = 0
KFVS 111120Z 18003KT 15/08 A302 RMK A01 T01470083  RH  066%=      5-min Rain = 0
KFVS 111125Z 17003KT 15/08 A302 RMK A01 T01490083  RH  066%=      5-min Rain = 0
KFVS 111130Z 17004KT 15/08 A3021 RMK A01 T01500082  RH  065%=      5-min Rain = 0
KFVS 111135Z 16004KT 15/08 A3021 RMK A01 T01490081  RH  065%=      5-min Rain = 0
KFVS 111140Z 16003KT 15/08 A3021 RMK A01 T01460081  RH  066%=      5-min Rain = 0
KFVS 111145Z 15003KT 15/08 A3021 RMK A01 T01460083  RH  067%=      5-min Rain = 0
KFVS 111150Z 15004KT 15/08 A3021 RMK A01 T01450083  RH  067%=      5-min Rain = 0
KFVS 111155Z 16004KT 14/08 A3021 RMK A01 T01440083  RH  068%=      5-min Rain = 0
KFVS 111200Z 17004KT 14/08 A3021 RMK A01 T01440083  RH  068%=      5-min Rain = 0
KFVS 111205Z 17004KT 15/08 A3021 RMK A01 T01450083  RH  067%=      5-min Rain = 0
KFVS 111210Z 17004KT 15/08 A3021 RMK A01 T01450083  RH  067%=      5-min Rain = 0
KFVS 111215Z 17004KT 14/08 A3021 RMK A01 T01440082  RH  067%=      5-min Rain = 0
KFVS 111220Z 17004KT 14/08 A3021 RMK A01 T01430082  RH  068%=      5-min Rain = 0
KFVS 111225Z 16004KT 14/08 A3021 RMK A01 T01410082  RH  068%=      5-min Rain = 0
KFVS 111230Z 15004KT 14/08 A3021 RMK A01 T01380080  RH  069%=      5-min Rain = 0
KFVS 111235Z 16003KT 14/08 A3021 RMK A01 T01360081  RH  071%=      5-min Rain = 0
KFVS 111240Z 15003KT 14/08 A3021 RMK A01 T01370082  RH  071%=      5-min Rain = 0
KFVS 111245Z 14003KT 14/08 A3021 RMK A01 T01370081  RH  070%=      5-min Rain = 0
KFVS 111250Z 14003KT 14/08 A3022 RMK A01 T01360080  RH  070%=      5-min Rain = 0
KFVS 111255Z 14003KT 14/08 A3022 RMK A01 T01370082  RH  070%=      5-min Rain = 0
KFVS 111300Z 14003KT 14/08 A3022 RMK A01 T01400083  RH  070%=      5-min Rain = 0
KFVS 111305Z 15002KT 14/09 A3022 RMK A01 T01440085  RH  068%=      5-min Rain = 0
KFVS 111310Z 15002KT 15/09 A3022 RMK A01 T01500087  RH  067%=      5-min Rain = 0
KFVS 111315Z 16002KT 16/09 A3022 RMK A01 T01550089  RH  066%=      5-min Rain = 0
KFVS 111320Z 16002KT 16/09 A3022 RMK A01 T01600091  RH  064%=      5-min Rain = 0
KFVS 111325Z 16002KT 17/09 A3022 RMK A01 T01660093  RH  063%=      5-min Rain = 0
KFVS 111330Z 18002KT 17/09 A3022 RMK A01 T01690093  RH  062%=      5-min Rain = 0
KFVS 111335Z 18002KT 17/09 A3022 RMK A01 T01720094  RH  061%=      5-min Rain = 0
KFVS 111340Z 18002KT 18/10 A3022 RMK A01 T01750096  RH  060%=      5-min Rain = 0
KFVS 111345Z 17002KT 18/10 A3022 RMK A01 T01790096  RH  059%=      5-min Rain = 0
KFVS 111350Z 17003KT 18/10 A3022 RMK A01 T01820095  RH  057%=      5-min Rain = 0
KFVS 111355Z 19002KT 18/10 A3022 RMK A01 T01840095  RH  057%=      5-min Rain = 0
KFVS 111400Z 19002KT 19/09 A3022 RMK A01 T01870094  RH  056%=      5-min Rain = 0
KFVS 111405Z 20003KT 19/10 A3022 RMK A01 T01900095  RH  055%=      5-min Rain = 0
KFVS 111410Z 21003KT 19/10 A3022 RMK A01 T01930095  RH  054%=      5-min Rain = 0
KFVS 111415Z 21003KT 19/09 A3022 RMK A01 T01940093  RH  053%=      5-min Rain = 0
KFVS 111420Z 20004KT 20/09 A3022 RMK A01 T01960091  RH  052%=      5-min Rain = 0
KFVS 111425Z 20003KT 20/09 A3022 RMK A01 T01990093  RH  051%=      5-min Rain = 0
KFVS 111430Z 20003KT 20/09 A3022 RMK A01 T02030092  RH  050%=      5-min Rain = 0
KFVS 111435Z 20004KT 21/09 A3022 RMK A01 T02060089  RH  048%=      5-min Rain = 0
KFVS 111440Z 19005KT 21/09 A3023 RMK A01 T02090087  RH  046%=      5-min Rain = 0
KFVS 111445Z 19005KT 21/09 A3022 RMK A01 T02110086  RH  045%=      5-min Rain = 0
KFVS 111450Z 20005KT 22/09 A3022 RMK A01 T02150087  RH  045%=      5-min Rain = 0
KFVS 111455Z 19007KT 22/08 A3022 RMK A01 T02150083  RH  043%=      5-min Rain = 0
KFVS 111500Z 19006KT 22/09 A3022 RMK A01 T02180085  RH  043%=      5-min Rain = 0
KFVS 111505Z 20005KT 22/09 A3022 RMK A01 T02210085  RH  042%=      5-min Rain = 0
KFVS 111510Z 21006KT 22/08 A3022 RMK A01 T02220084  RH  042%=      5-min Rain = 0
KFVS 111515Z 20005KT 22/09 A3023 RMK A01 T02220085  RH  042%=      5-min Rain = 0
KFVS 111520Z 19004KT 22/09 A3023 RMK A01 T02240085  RH  042%=      5-min Rain = 0
KFVS 111525Z 20005KT 23/09 A3023 RMK A01 T02260087  RH  041%=      5-min Rain = 0
KFVS 111530Z 18004KT 23/09 A3023 RMK A01 T02280088  RH  041%=      5-min Rain = 0
KFVS 111535Z 18004KT 23/09 A3023 RMK A01 T02310087  RH  040%=      5-min Rain = 0
KFVS 111540Z 19003KT 23/09 A3023 RMK A01 T02310086  RH  040%=      5-min Rain = 0
KFVS 111545Z 21004KT 23/09 A3023 RMK A01 T02340087  RH  040%=      5-min Rain = 0
KFVS 111550Z 19004KT 24/09 A3023 RMK A01 T02350086  RH  039%=      5-min Rain = 0
KFVS 111555Z 19003KT 24/09 A3023 RMK A01 T02390085  RH  038%=      5-min Rain = 0
KFVS 111600Z 19002KT 24/08 A3023 RMK A01 T02410083  RH  037%=      5-min Rain = 0
KFVS 111605Z 19004KT 24/09 A3023 RMK A01 T02430085  RH  037%=      5-min Rain = 0
KFVS 111610Z 15004KT 25/08 A3023 RMK A01 T02450083  RH  036%=      5-min Rain = 0
KFVS 111615Z 19004KT 25/08 A3023 RMK A01 T02480084  RH  036%=      5-min Rain = 0
KFVS 111620Z 23003KT 25/08 A3023 RMK A01 T02470084  RH  036%=      5-min Rain = 0
KFVS 111625Z 16004KT 25/08 A3023 RMK A01 T02480082  RH  035%=      5-min Rain = 0
KFVS 111630Z 12002KT 25/08 A3022 RMK A01 T02490081  RH  035%=      5-min Rain = 0
KFVS 111635Z 14002KT 25/08 A3022 RMK A01 T02540082  RH  034%=      5-min Rain = 0
KFVS 111640Z 20003KT 26/08 A3022 RMK A01 T02550082  RH  034%=      5-min Rain = 0
KFVS 111645Z 21003KT 26/08 A3022 RMK A01 T02560084  RH  034%=      5-min Rain = 0
KFVS 111650Z 24004KT 26/08 A3022 RMK A01 T02590083  RH  033%=      5-min Rain = 0
KFVS 111655Z 26004KT 26/08 A3022 RMK A01 T02580081  RH  033%=      5-min Rain = 0
KFVS 111700Z 27003KT 26/08 A3022 RMK A01 T02590082  RH  033%=      5-min Rain = 0
KFVS 111705Z 03003KT 26/08 A3021 RMK A01 T02620081  RH  032%=      5-min Rain = 0
KFVS 111710Z 35004KT 26/08 A3021 RMK A01 T02640081  RH  032%=      5-min Rain = 0
KFVS 111715Z 30001KT 26/08 A3021 RMK A01 T02620081  RH  032%=      5-min Rain = 0
KFVS 111720Z 33002KT 26/08 A3021 RMK A01 T02630082  RH  032%=      5-min Rain = 0
KFVS 111725Z 03002KT 27/08 A3021 RMK A01 T02650080  RH  031%=      5-min Rain = 0
KFVS 111730Z 33004G9KT 27/08 A3021 RMK A01 T02670080  RH  031%=      5-min Rain = 0
KFVS 111735Z 32006KT 27/08 A3021 RMK A01 T02690081  RH  031%=      5-min Rain = 0
KFVS 111740Z 32006KT 27/08 A3021 RMK A01 T02720081  RH  031%=      5-min Rain = 0
KFVS 111745Z 30004KT 27/08 A302 RMK A01 T02700080  RH  030%=      5-min Rain = 0
KFVS 111750Z 33002KT 27/08 A302 RMK A01 T02710080  RH  030%=      5-min Rain = 0
KFVS 111755Z 01004KT 28/08 A302 RMK A01 T02760081  RH  030%=      5-min Rain = 0
KFVS 111800Z 01006KT 28/08 A302 RMK A01 T02760081  RH  030%=      5-min Rain = 0
KFVS 111805Z 04004KT 28/08 A3019 RMK A01 T02750080  RH  030%=      5-min Rain = 0
KFVS 111810Z 33003KT 28/08 A3019 RMK A01 T02770081  RH  030%=      5-min Rain = 0
KFVS 111815Z 02007G13KT 28/08 A3019 RMK A01 T02800082  RH  029%=      5-min Rain = 0
KFVS 111820Z 02007KT 28/08 A3019 RMK A01 T02830082  RH  029%=      5-min Rain = 0
KFVS 111825Z 36003KT 28/08 A3019 RMK A01 T02780082  RH  029%=      5-min Rain = 0
KFVS 111830Z 31003KT 28/08 A3018 RMK A01 T02780081  RH  029%=      5-min Rain = 0
KFVS 111835Z 26002KT 28/08 A3018 RMK A01 T02790080  RH  029%=      5-min Rain = 0
KFVS 111840Z 35003G11KT 28/08 A3018 RMK A01 T02840081  RH  028%=      5-min Rain = 0
KFVS 111845Z 02008KT 29/08 A3018 RMK A01 T02870080  RH  028%=      5-min Rain = 0
KFVS 111850Z 33005KT 29/08 A3017 RMK A01 T02860080  RH  028%=      5-min Rain = 0
KFVS 111855Z 32005G11KT 29/08 A3017 RMK A01 T02860081  RH  028%=      5-min Rain = 0
KFVS 111900Z 29007G12KT 29/08 A3017 RMK A01 T02890081  RH  027%=      5-min Rain = 0
KFVS 111905Z 32006G11KT 29/08 A3017 RMK A01 T02910081  RH  027%=      5-min Rain = 0
KFVS 111910Z 32005KT 29/08 A3017 RMK A01 T02910079  RH  027%=      5-min Rain = 0
KFVS 111915Z 34007KT 29/08 A3016 RMK A01 T02910079  RH  027%=      5-min Rain = 0
KFVS 111920Z 00008KT 30/08 A3016 RMK A01 T02980079  RH  026%=      5-min Rain = 0
KFVS 111925Z 35008KT 30/08 A3016 RMK A01 T02970080  RH  026%=      5-min Rain = 0
KFVS 111930Z 35007G13KT 29/08 A3016 RMK A01 T02930080  RH  027%=      5-min Rain = 0
KFVS 111935Z 34008G13KT 29/08 A3016 RMK A01 T02930080  RH  027%=      5-min Rain = 0
KFVS 111940Z 02009KT 30/08 A3016 RMK A01 T02950079  RH  026%=      5-min Rain = 0
KFVS 111945Z 05009G14KT 29/08 A3015 RMK A01 T02940078  RH  026%=      5-min Rain = 0
KFVS 111950Z 36003G9KT 29/08 A3015 RMK A01 T02930079  RH  027%=      5-min Rain = 0
KFVS 111955Z 03006KT 29/08 A3015 RMK A01 T02940078  RH  026%=      5-min Rain = 0
KFVS 112000Z 02007G12KT 30/08 A3014 RMK A01 T02970078  RH  026%=      5-min Rain = 0
KFVS 112005Z 04007KT 30/08 A3014 RMK A01 T02980076  RH  025%=      5-min Rain = 0
KFVS 112010Z 03008G13KT 30/08 A3014 RMK A01 T02980075  RH  025%=      5-min Rain = 0
KFVS 112015Z 04007G13KT 30/07 A3013 RMK A01 T02980073  RH  025%=      5-min Rain = 0
KFVS 112020Z 05007G15KT 30/07 A3013 RMK A01 T02970073  RH  025%=      5-min Rain = 0
KFVS 112025Z 19002KT 30/07 A3013 RMK A01 T02960074  RH  025%=      5-min Rain = 0
KFVS 112030Z 04006G17KT 30/07 A3012 RMK A01 T03030073  RH  024%=      5-min Rain = 0
KFVS 112035Z 06007G12KT 30/07 A3012 RMK A01 T03020069  RH  023%=      5-min Rain = 0
KFVS 112040Z 09003G10KT 30/07 A3012 RMK A01 T02990066  RH  023%=      5-min Rain = 0
KFVS 112045Z 04008KT 30/06 A3012 RMK A01 T03030063  RH  022%=      5-min Rain = 0
KFVS 112050Z 05007G12KT 31/06 A3012 RMK A01 T03060060  RH  022%=      5-min Rain = 0
KFVS 112055Z 04006KT 31/07 A3012 RMK A01 T03060068  RH  023%=      5-min Rain = 0
KFVS 112100Z 36003KT 30/07 A3011 RMK A01 T03040072  RH  024%=      5-min Rain = 0
KFVS 112105Z 27002KT 30/07 A3011 RMK A01 T03020072  RH  024%=      5-min Rain = 0
KFVS 112110Z 04003G12KT 30/07 A3011 RMK A01 T03020071  RH  024%=      5-min Rain = 0
KFVS 112115Z 02006KT 30/07 A3011 RMK A01 T03040069  RH  023%=      5-min Rain = 0
KFVS 112120Z 06002KT 30/07 A301 RMK A01 T03020065  RH  023%=      5-min Rain = 0
KFVS 112125Z 01006KT 31/07 A301 RMK A01 T03050070  RH  023%=      5-min Rain = 0
KFVS 112130Z 36007KT 31/07 A301 RMK A01 T03050073  RH  024%=      5-min Rain = 0
KFVS 112135Z 06005KT 30/07 A301 RMK A01 T03040070  RH  023%=      5-min Rain = 0
KFVS 112140Z 10005G10KT 30/07 A301 RMK A01 T03030072  RH  024%=      5-min Rain = 0
KFVS 112145Z 21004KT 30/07 A3009 RMK A01 T03010073  RH  024%=      5-min Rain = 0
KFVS 112150Z 22002KT 30/08 A3009 RMK A01 T03030076  RH  025%=      5-min Rain = 0
KFVS 112155Z 01005G10KT 31/07 A3009 RMK A01 T03080070  RH  023%=      5-min Rain = 0
KFVS 112200Z 36009KT 31/07 A3009 RMK A01 T03080071  RH  023%=      5-min Rain = 0
KFVS 112205Z 01007KT 31/07 A3009 RMK A01 T03080071  RH  023%=      5-min Rain = 0
KFVS 112210Z 04006G11KT 31/07 A3009 RMK A01 T03060070  RH  023%=      5-min Rain = 0
KFVS 112215Z 07007G13KT 31/07 A3009 RMK A01 T03050068  RH  023%=      5-min Rain = 0
KFVS 112220Z 09006KT 30/07 A3009 RMK A01 T03040068  RH  023%=      5-min Rain = 0
KFVS 112225Z 05009KT 31/06 A3009 RMK A01 T03060064  RH  022%=      5-min Rain = 0
KFVS 112230Z 03007KT 31/06 A3009 RMK A01 T03060062  RH  022%=      5-min Rain = 0
KFVS 112235Z 02004G9KT 30/07 A3008 RMK A01 T03040065  RH  023%=      5-min Rain = 0
KFVS 112240Z 03006G12KT 31/07 A3008 RMK A01 T03050067  RH  023%=      5-min Rain = 0
KFVS 112245Z 03007KT 31/07 A3009 RMK A01 T03060067  RH  023%=      5-min Rain = 0
KFVS 112250Z 05008KT 31/07 A3008 RMK A01 T03050067  RH  023%=      5-min Rain = 0
KFVS 112255Z 03007KT 30/07 A3008 RMK A01 T03040067  RH  023%=      5-min Rain = 0
KFVS 112300Z 03005KT 31/06 A3008 RMK A01 T03050063  RH  022%=      5-min Rain = 0
KFVS 112305Z 05004KT 30/06 A3008 RMK A01 T03040064  RH  022%=      5-min Rain = 0
KFVS 112310Z 05006KT 30/06 A3008 RMK A01 T03040064  RH  022%=      5-min Rain = 0
KFVS 112315Z 03002G8KT 30/07 A3008 RMK A01 T03030065  RH  023%=      5-min Rain = 0
KFVS 112320Z 07005KT 30/06 A3008 RMK A01 T03040064  RH  022%=      5-min Rain = 0
KFVS 112325Z 06007KT 30/06 A3008 RMK A01 T03030063  RH  022%=      5-min Rain = 0
KFVS 112330Z 05006KT 30/06 A3008 RMK A01 T03010064  RH  023%=      5-min Rain = 0
KFVS 112335Z 07006KT 30/07 A3008 RMK A01 T03000065  RH  023%=      5-min Rain = 0
KFVS 112340Z 02005KT 30/07 A3008 RMK A01 T03010067  RH  023%=      5-min Rain = 0
KFVS 112345Z 02007KT 30/07 A3008 RMK A01 T03010065  RH  023%=      5-min Rain = 0
KFVS 112350Z 03006KT 30/06 A3008 RMK A01 T02990064  RH  023%=      5-min Rain = 0
KFVS 112355Z 03005KT 30/06 A3008 RMK A01 T02970064  RH  023%=      5-min Rain = 0
KFVS 120000Z 04004KT 30/06 A3008 RMK A01 T02960064  RH  023%=      5-min Rain = 0
KFVS 120005Z 05004KT 30/06 A3008 RMK A01 T02960064  RH  023%=      5-min Rain = 0
KFVS 120010Z 05005KT 30/06 A3007 RMK A01 T02950064  RH  024%=      5-min Rain = 0
KFVS 120015Z 04005KT 29/06 A3007 RMK A01 T02940064  RH  024%=      5-min Rain = 0
KFVS 120020Z 04005KT 29/07 A3007 RMK A01 T02920065  RH  024%=      5-min Rain = 0
KFVS 120025Z 06004KT 29/07 A3007 RMK A01 T02900065  RH  025%=      5-min Rain = 0
KFVS 120030Z 05005KT 29/06 A3007 RMK A01 T02870064  RH  025%=      5-min Rain = 0
KFVS 120035Z 05004KT 28/07 A3007 RMK A01 T02840065  RH  025%=      5-min Rain = 0
KFVS 120040Z 06004KT 28/07 A3007 RMK A01 T02800065  RH  026%=      5-min Rain = 0
KFVS 120045Z 06004KT 28/07 A3007 RMK A01 T02750065  RH  027%=      5-min Rain = 0
KFVS 120050Z 07003KT 27/07 A3007 RMK A01 T02710066  RH  027%=      5-min Rain = 0
KFVS 120055Z 07004KT 27/07 A3007 RMK A01 T02680067  RH  028%=      5-min Rain = 0
KFVS 120100Z 07004KT 27/07 A3007 RMK A01 T02660067  RH  029%=      5-min Rain = 0
KFVS 120105Z 06004KT 26/07 A3007 RMK A01 T02630068  RH  029%=      5-min Rain = 0
KFVS 120110Z 06004KT 26/07 A3007 RMK A01 T02600068  RH  030%=      5-min Rain = 0
KFVS 120115Z 07004KT 26/07 A3007 RMK A01 T02550068  RH  031%=      5-min Rain = 0
KFVS 120120Z 08004KT 25/07 A3007 RMK A01 T02510069  RH  032%=      5-min Rain = 0
KFVS 120125Z 07005KT 25/07 A3007 RMK A01 T02500070  RH  032%=      5-min Rain = 0
KFVS 120130Z 08005KT 25/07 A3007 RMK A01 T02470070  RH  033%=      5-min Rain = 0
KFVS 120135Z 08006KT 25/07 A3007 RMK A01 T02450070  RH  033%=      5-min Rain = 0
KFVS 120140Z 08005KT 24/07 A3007 RMK A01 T02410070  RH  034%=      5-min Rain = 0
KFVS 120145Z 09005KT 24/07 A3008 RMK A01 T02350069  RH  035%=      5-min Rain = 0
KFVS 120150Z 10005KT 23/07 A3008 RMK A01 T02340067  RH  034%=      5-min Rain = 0
KFVS 120155Z 09005KT 23/07 A3008 RMK A01 T02340065  RH  034%=      5-min Rain = 0
KFVS 120200Z 11005KT 23/06 A3008 RMK A01 T02300064  RH  035%=      5-min Rain = 0
KFVS 120205Z 11005KT 23/06 A3008 RMK A01 T02280062  RH  035%=      5-min Rain = 0
KFVS 120210Z 11005KT 23/06 A3008 RMK A01 T02290059  RH  034%=      5-min Rain = 0
KFVS 120215Z 11005KT 23/06 A3008 RMK A01 T02290058  RH  033%=      5-min Rain = 0
KFVS 120220Z 11005KT 23/06 A3008 RMK A01 T02280059  RH  034%=      5-min Rain = 0
KFVS 120225Z 11005KT 23/06 A3009 RMK A01 T02270060  RH  034%=      5-min Rain = 0
KFVS 120230Z 11004KT 23/06 A3009 RMK A01 T02260060  RH  035%=      5-min Rain = 0
KFVS 120235Z 10004KT 22/06 A3009 RMK A01 T02240060  RH  035%=      5-min Rain = 0
KFVS 120240Z 10005KT 22/06 A3009 RMK A01 T02210060  RH  035%=      5-min Rain = 0
KFVS 120245Z 11006KT 22/06 A3009 RMK A01 T02180060  RH  036%=      5-min Rain = 0
KFVS 120250Z 11006KT 22/06 A3009 RMK A01 T02170061  RH  037%=      5-min Rain = 0
KFVS 120255Z 10006KT 22/06 A3009 RMK A01 T02160061  RH  037%=      5-min Rain = 0
KFVS 120300Z 10006KT 22/06 A301 RMK A01 T02150061  RH  037%=      5-min Rain = 0
KFVS 120305Z 10006KT 21/06 A301 RMK A01 T02120062  RH  038%=      5-min Rain = 0
KFVS 120310Z 10007KT 21/06 A301 RMK A01 T02110063  RH  039%=      5-min Rain = 0
KFVS 120315Z 10007KT 21/06 A301 RMK A01 T02100064  RH  039%=      5-min Rain = 0
KFVS 120320Z 10007KT 21/07 A301 RMK A01 T02090065  RH  040%=      5-min Rain = 0
KFVS 120325Z 10006KT 21/07 A301 RMK A01 T02060066  RH  041%=      5-min Rain = 0
KFVS 120330Z 10006KT 21/07 A301 RMK A01 T02050067  RH  042%=      5-min Rain = 0
KFVS 120335Z 09006KT 20/07 A301 RMK A01 T02030068  RH  042%=      5-min Rain = 0
KFVS 120340Z 09007KT 20/07 A301 RMK A01 T02020068  RH  043%=      5-min Rain = 0
KFVS 120345Z 09007KT 20/07 A301 RMK A01 T01990071  RH  044%=      5-min Rain = 0
KFVS 120350Z 09007KT 20/07 A301 RMK A01 T01990073  RH  045%=      5-min Rain = 0
KFVS 120355Z 09007KT 20/07 A301 RMK A01 T02000074  RH  045%=      5-min Rain = 0
KFVS 120400Z 09006KT 20/07 A3011 RMK A01 T02000074  RH  045%=      5-min Rain = 0
KFVS 120405Z 09006KT 20/07 A3011 RMK A01 T01980074  RH  045%=      5-min Rain = 0
KFVS 120410Z 09007KT 20/07 A3011 RMK A01 T01960074  RH  046%=      5-min Rain = 0
KFVS 120415Z 09007KT 20/07 A3011 RMK A01 T01950074  RH  046%=      5-min Rain = 0
KFVS 120420Z 10006KT 20/07 A3011 RMK A01 T01950074  RH  046%=      5-min Rain = 0
KFVS 120425Z 10006KT 19/07 A3011 RMK A01 T01940074  RH  046%=      5-min Rain = 0
KFVS 120430Z 10006KT 19/07 A3011 RMK A01 T01940074  RH  047%=      5-min Rain = 0
KFVS 120435Z 10006KT 19/07 A3011 RMK A01 T01920074  RH  047%=      5-min Rain = 0
KFVS 120440Z 10006KT 19/07 A3011 RMK A01 T01900074  RH  048%=      5-min Rain = 0
KFVS 120445Z 10006KT 19/08 A3011 RMK A01 T01890075  RH  048%=      5-min Rain = 0
KFVS 120450Z 10006KT 19/08 A3011 RMK A01 T01900075  RH  048%=      5-min Rain = 0
KFVS 120455Z 11006KT 19/08 A3011 RMK A01 T01900075  RH  048%=      5-min Rain = 0

Page generated in 0.0091 seconds.